sensor_id;sensor_type;location;lat;lon;timestamp;pressure;altitude;pressure_sealevel;temperature;humidity
15444;BME280;7822;48.146;11.576;2023-05-09T00:00:36;95472.22;;;16.15;70.33
15444;BME280;7822;48.146;11.576;2023-05-09T00:03:04;95471.25;;;16.16;70.42
15444;BME280;7822;48.146;11.576;2023-05-09T00:05:31;95479.09;;;16.16;70.44
15444;BME280;7822;48.146;11.576;2023-05-09T00:08:00;95471.25;;;16.16;70.40
15444;BME280;7822;48.146;11.576;2023-05-09T00:10:28;95476.50;;;16.16;70.57
15444;BME280;7822;48.146;11.576;2023-05-09T00:12:56;95472.88;;;16.17;70.47
15444;BME280;7822;48.146;11.576;2023-05-09T00:15:25;95474.00;;;16.15;70.49
15444;BME280;7822;48.146;11.576;2023-05-09T00:17:54;95472.22;;;16.15;70.50
15444;BME280;7822;48.146;11.576;2023-05-09T00:20:21;95460.91;;;16.15;70.49
15444;BME280;7822;48.146;11.576;2023-05-09T00:22:49;95458.28;;;16.15;70.65
15444;BME280;7822;48.146;11.576;2023-05-09T00:25:18;95464.38;;;16.15;70.47
15444;BME280;7822;48.146;11.576;2023-05-09T00:27:45;95460.78;;;16.16;70.39
15444;BME280;7822;48.146;11.576;2023-05-09T00:30:13;95461.63;;;16.17;70.46
15444;BME280;7822;48.146;11.576;2023-05-09T00:32:40;95460.78;;;16.16;70.54
15444;BME280;7822;48.146;11.576;2023-05-09T00:35:08;95461.63;;;16.17;70.33
15444;BME280;7822;48.146;11.576;2023-05-09T00:37:36;95462.28;;;16.19;70.51
15444;BME280;7822;48.146;11.576;2023-05-09T00:40:04;95451.94;;;16.17;70.75
15444;BME280;7822;48.146;11.576;2023-05-09T00:42:33;95463.25;;;16.18;70.52
15444;BME280;7822;48.146;11.576;2023-05-09T00:45:01;95458.84;;;16.18;70.53
15444;BME280;7822;48.146;11.576;2023-05-09T00:47:28;95447.53;;;16.18;70.37
15444;BME280;7822;48.146;11.576;2023-05-09T00:49:56;95450.97;;;16.18;70.43
15444;BME280;7822;48.146;11.576;2023-05-09T00:52:24;95444.91;;;16.18;70.47
15444;BME280;7822;48.146;11.576;2023-05-09T00:54:52;95443.97;;;16.19;70.46
15444;BME280;7822;48.146;11.576;2023-05-09T00:57:20;95449.19;;;16.19;70.46
15444;BME280;7822;48.146;11.576;2023-05-09T00:59:49;95437.06;;;16.18;70.53
15444;BME280;7822;48.146;11.576;2023-05-09T01:02:17;95443.13;;;16.18;70.53
15444;BME280;7822;48.146;11.576;2023-05-09T01:04:46;95438.72;;;16.19;70.64
15444;BME280;7822;48.146;11.576;2023-05-09T03:41:57;95358.03;;;16.14;71.03
15444;BME280;7822;48.146;11.576;2023-05-09T03:44:24;95354.59;;;16.14;71.07
15444;BME280;7822;48.146;11.576;2023-05-09T03:46:52;95351.81;;;16.15;70.99
15444;BME280;7822;48.146;11.576;2023-05-09T03:49:19;95357.03;;;16.15;71.07
15444;BME280;7822;48.146;11.576;2023-05-09T03:51:47;95356.22;;;16.15;71.01
15444;BME280;7822;48.146;11.576;2023-05-09T03:54:14;95352.81;;;16.14;71.02
15444;BME280;7822;48.146;11.576;2023-05-09T03:56:42;95364.78;;;16.17;71.22
15444;BME280;7822;48.146;11.576;2023-05-09T03:59:11;95357.88;;;16.16;70.94
15444;BME280;7822;48.146;11.576;2023-05-09T04:01:38;95361.31;;;16.16;70.90
15444;BME280;7822;48.146;11.576;2023-05-09T04:04:06;95357.03;;;16.15;71.04
15444;BME280;7822;48.146;11.576;2023-05-09T04:06:34;95369.19;;;16.16;71.03
15444;BME280;7822;48.146;11.576;2023-05-09T04:09:02;95362.28;;;16.15;70.95
15444;BME280;7822;48.146;11.576;2023-05-09T04:11:30;95358.72;;;16.16;70.99
15444;BME280;7822;48.146;11.576;2023-05-09T04:13:57;95370.00;;;16.17;71.01
15444;BME280;7822;48.146;11.576;2023-05-09T04:16:26;95370.00;;;16.17;71.04
15444;BME280;7822;48.146;11.576;2023-05-09T04:18:53;95365.56;;;16.17;71.13
15444;BME280;7822;48.146;11.576;2023-05-09T04:21:21;95374.41;;;16.16;70.98
15444;BME280;7822;48.146;11.576;2023-05-09T04:23:48;95372.63;;;16.17;70.87
15444;BME280;7822;48.146;11.576;2023-05-09T04:26:16;95368.34;;;16.16;71.07
15444;BME280;7822;48.146;11.576;2023-05-09T04:28:44;95372.63;;;16.17;71.17
15444;BME280;7822;48.146;11.576;2023-05-09T04:31:11;95363.13;;;16.16;71.13
15444;BME280;7822;48.146;11.576;2023-05-09T04:33:41;95371.78;;;16.16;71.12
15444;BME280;7822;48.146;11.576;2023-05-09T04:36:08;95369.19;;;16.16;nan
15444;BME280;7822;48.146;11.576;2023-05-09T04:38:36;95363.94;;;16.16;71.10
15444;BME280;7822;48.146;11.576;2023-05-09T04:41:04;95357.03;;;16.15;71.16
15444;BME280;7822;48.146;11.576;2023-05-09T04:43:31;95358.84;;;16.15;71.14
15444;BME280;7822;48.146;11.576;2023-05-09T04:45:59;95362.28;;;16.15;71.19
15444;BME280;7822;48.146;11.576;2023-05-09T04:48:27;95360.50;;;16.16;71.11
15444;BME280;7822;48.146;11.576;2023-05-09T04:50:56;95357.03;;;16.15;71.30
15444;BME280;7822;48.146;11.576;2023-05-09T04:53:24;95357.88;;;16.16;71.14
15444;BME280;7822;48.146;11.576;2023-05-09T04:55:51;95355.44;;;16.14;71.14
15444;BME280;7822;48.146;11.576;2023-05-09T04:58:19;95345.75;;;16.15;71.19
15444;BME280;7822;48.146;11.576;2023-05-09T05:00:46;95349.19;;;16.15;71.24
15444;BME280;7822;48.146;11.576;2023-05-09T05:03:15;95344.13;;;16.14;71.18
15444;BME280;7822;48.146;11.576;2023-05-09T05:05:43;95355.44;;;16.14;71.36
15444;BME280;7822;48.146;11.576;2023-05-09T05:08:12;95351.81;;;16.15;71.50
15444;BME280;7822;48.146;11.576;2023-05-09T05:10:39;95354.44;;;16.15;71.30
15444;BME280;7822;48.146;11.576;2023-05-09T05:13:07;95350.84;;;16.16;71.27
15444;BME280;7822;48.146;11.576;2023-05-09T05:15:34;95349.19;;;16.15;71.24
15444;BME280;7822;48.146;11.576;2023-05-09T05:18:02;95355.25;;;16.16;71.19
15444;BME280;7822;48.146;11.576;2023-05-09T05:20:29;95348.38;;;16.15;71.16
15444;BME280;7822;48.146;11.576;2023-05-09T05:22:57;95350.03;;;16.16;71.06
15444;BME280;7822;48.146;11.576;2023-05-09T05:25:26;95343.97;;;16.15;71.06
15444;BME280;7822;48.146;11.576;2023-05-09T05:27:53;95343.84;;;16.17;71.14
15444;BME280;7822;48.146;11.576;2023-05-09T05:30:20;95341.34;;;16.15;71.22
15444;BME280;7822;48.146;11.576;2023-05-09T05:32:48;95343.84;;;16.17;71.10
15444;BME280;7822;48.146;11.576;2023-05-09T05:35:16;95340.53;;;16.15;71.26
15444;BME280;7822;48.146;11.576;2023-05-09T05:37:44;95342.19;;;16.16;71.19
15444;BME280;7822;48.146;11.576;2023-05-09T05:40:14;95339.56;;;16.16;71.34
15444;BME280;7822;48.146;11.576;2023-05-09T05:42:43;95344.78;;;16.16;71.29
15444;BME280;7822;48.146;11.576;2023-05-09T05:45:11;95342.19;;;16.16;71.21
15444;BME280;7822;48.146;11.576;2023-05-09T05:47:39;95342.19;;;16.16;71.33
15444;BME280;7822;48.146;11.576;2023-05-09T05:50:07;95342.19;;;16.16;71.31
15444;BME280;7822;48.146;11.576;2023-05-09T05:52:37;95336.13;;;16.15;71.39
15444;BME280;7822;48.146;11.576;2023-05-09T05:55:04;95333.50;;;16.15;71.19
15444;BME280;7822;48.146;11.576;2023-05-09T05:57:32;95330.88;;;16.15;71.28
15444;BME280;7822;48.146;11.576;2023-05-09T06:00:02;95323.03;;;16.15;71.38
15444;BME280;7822;48.146;11.576;2023-05-09T06:02:31;95329.09;;;16.16;71.40
15444;BME280;7822;48.146;11.576;2023-05-09T06:04:59;95328.41;;;16.14;71.42
15444;BME280;7822;48.146;11.576;2023-05-09T06:07:26;95324.00;;;16.14;71.46
15444;BME280;7822;48.146;11.576;2023-05-09T06:09:54;95322.34;;;16.13;71.42
15444;BME280;7822;48.146;11.576;2023-05-09T06:12:21;95318.78;;;16.14;71.48
15444;BME280;7822;48.146;11.576;2023-05-09T06:14:51;95324.00;;;16.14;71.53
15444;BME280;7822;48.146;11.576;2023-05-09T06:17:20;95313.53;;;16.14;71.44
15444;BME280;7822;48.146;11.576;2023-05-09T06:19:47;95309.09;;;16.15;71.35
15444;BME280;7822;48.146;11.576;2023-05-09T06:22:15;95313.53;;;16.14;71.37
15444;BME280;7822;48.146;11.576;2023-05-09T06:24:42;95305.69;;;16.14;71.51
15444;BME280;7822;48.146;11.576;2023-05-09T06:27:10;95314.22;;;16.16;71.46
15444;BME280;7822;48.146;11.576;2023-05-09T06:29:37;95310.75;;;16.16;71.63
15444;BME280;7822;48.146;11.576;2023-05-09T06:32:05;95307.31;;;16.15;71.45
15444;BME280;7822;48.146;11.576;2023-05-09T06:34:34;95319.44;;;16.16;71.45
15444;BME280;7822;48.146;11.576;2023-05-09T06:37:01;95322.88;;;16.17;71.60
15444;BME280;7822;48.146;11.576;2023-05-09T06:39:28;95307.19;;;16.17;71.53
15444;BME280;7822;48.146;11.576;2023-05-09T06:41:56;95302.09;;;16.15;71.51
15444;BME280;7822;48.146;11.576;2023-05-09T06:44:23;95299.34;;;16.17;71.43
15444;BME280;7822;48.146;11.576;2023-05-09T06:46:51;95294.91;;;16.17;71.47
15444;BME280;7822;48.146;11.576;2023-05-09T06:49:19;95295.72;;;16.18;71.51
15444;BME280;7822;48.146;11.576;2023-05-09T06:51:48;95288.03;;;16.16;71.55
15444;BME280;7822;48.146;11.576;2023-05-09T06:54:15;95295.72;;;16.18;71.51
15444;BME280;7822;48.146;11.576;2023-05-09T06:56:43;95289.66;;;16.17;71.68
15444;BME280;7822;48.146;11.576;2023-05-09T06:59:11;95290.50;;;16.18;71.49
15444;BME280;7822;48.146;11.576;2023-05-09T07:01:38;95290.50;;;16.18;71.59
15444;BME280;7822;48.146;11.576;2023-05-09T07:04:06;95285.25;;;16.18;71.53
15444;BME280;7822;48.146;11.576;2023-05-09T07:06:33;95282.63;;;16.18;71.58
15444;BME280;7822;48.146;11.576;2023-05-09T07:09:02;95282.63;;;16.18;71.53
15444;BME280;7822;48.146;11.576;2023-05-09T07:11:32;95279.06;;;16.19;71.54
15444;BME280;7822;48.146;11.576;2023-05-09T07:14:00;95274.78;;;16.18;71.63
15444;BME280;7822;48.146;11.576;2023-05-09T07:16:27;95276.56;;;16.17;71.57
15444;BME280;7822;48.146;11.576;2023-05-09T07:18:55;95275.78;;;16.17;71.56
15444;BME280;7822;48.146;11.576;2023-05-09T07:21:23;95278.22;;;16.18;71.58
15444;BME280;7822;48.146;11.576;2023-05-09T07:23:50;95266.94;;;16.18;71.63
15444;BME280;7822;48.146;11.576;2023-05-09T07:26:19;95260.75;;;16.19;71.54
15444;BME280;7822;48.146;11.576;2023-05-09T07:28:47;95255.63;;;16.17;71.61
15444;BME280;7822;48.146;11.576;2023-05-09T07:31:14;95257.28;;;16.18;71.65
15444;BME280;7822;48.146;11.576;2023-05-09T07:33:42;95262.53;;;16.18;71.71
15444;BME280;7822;48.146;11.576;2023-05-09T07:36:09;95261.69;;;16.18;71.51
15444;BME280;7822;48.146;11.576;2023-05-09T07:38:38;95261.53;;;16.19;71.63
15444;BME280;7822;48.146;11.576;2023-05-09T07:41:05;95258.91;;;16.19;71.74
15444;BME280;7822;48.146;11.576;2023-05-09T07:43:34;95257.28;;;16.18;71.66
15444;BME280;7822;48.146;11.576;2023-05-09T07:46:02;95246.81;;;16.18;71.68
15444;BME280;7822;48.146;11.576;2023-05-09T07:48:30;95245.81;;;16.19;71.74
15444;BME280;7822;48.146;11.576;2023-05-09T07:50:57;95237.31;;;16.17;71.67
15444;BME280;7822;48.146;11.576;2023-05-09T07:53:24;95231.13;;;16.18;71.88
15444;BME280;7822;48.146;11.576;2023-05-09T07:55:52;95236.34;;;16.18;71.83
15444;BME280;7822;48.146;11.576;2023-05-09T07:58:20;95234.69;;;16.17;71.75
15444;BME280;7822;48.146;11.576;2023-05-09T08:00:48;95227.66;;;16.18;71.82
15444;BME280;7822;48.146;11.576;2023-05-09T08:03:16;95224.22;;;16.17;71.80
15444;BME280;7822;48.146;11.576;2023-05-09T08:05:46;95215.59;;;16.17;71.69
15444;BME280;7822;48.146;11.576;2023-05-09T08:08:13;95215.41;;;16.18;71.78
15444;BME280;7822;48.146;11.576;2023-05-09T08:10:40;95223.25;;;16.18;71.82
15444;BME280;7822;48.146;11.576;2023-05-09T08:13:08;95225.88;;;16.18;71.82
15444;BME280;7822;48.146;11.576;2023-05-09T08:15:35;95219.66;;;16.19;71.77
15444;BME280;7822;48.146;11.576;2023-05-09T08:18:04;95219.66;;;16.19;71.64
15444;BME280;7822;48.146;11.576;2023-05-09T08:20:32;95212.78;;;16.18;71.94
15444;BME280;7822;48.146;11.576;2023-05-09T08:23:00;95212.63;;;16.20;71.79
15444;BME280;7822;48.146;11.576;2023-05-09T08:25:27;95208.22;;;16.20;71.76
15444;BME280;7822;48.146;11.576;2023-05-09T08:27:55;95209.19;;;16.19;71.83
15444;BME280;7822;48.146;11.576;2023-05-09T08:30:22;95210.00;;;16.20;71.86
15444;BME280;7822;48.146;11.576;2023-05-09T08:32:50;95202.16;;;16.20;71.81
15444;BME280;7822;48.146;11.576;2023-05-09T08:35:18;95191.69;;;16.20;71.84
15444;BME280;7822;48.146;11.576;2023-05-09T08:37:46;95190.06;;;16.19;71.82
15444;BME280;7822;48.146;11.576;2023-05-09T08:40:14;95190.06;;;16.19;71.97
15444;BME280;7822;48.146;11.576;2023-05-09T08:42:43;95183.84;;;16.20;71.88
15444;BME280;7822;48.146;11.576;2023-05-09T08:45:11;95176.16;;;16.18;71.88
15444;BME280;7822;48.146;11.576;2023-05-09T08:47:40;95184.00;;;16.18;71.95
15444;BME280;7822;48.146;11.576;2023-05-09T08:50:08;95175.31;;;16.18;71.78
15444;BME280;7822;48.146;11.576;2023-05-09T08:52:38;95173.53;;;16.18;71.82
15444;BME280;7822;48.146;11.576;2023-05-09T08:55:06;95164.03;;;16.17;71.89
15444;BME280;7822;48.146;11.576;2023-05-09T08:57:33;95165.84;;;16.17;71.83
15444;BME280;7822;48.146;11.576;2023-05-09T09:00:01;95160.63;;;16.17;71.75
15444;BME280;7822;48.146;11.576;2023-05-09T09:02:31;95153.56;;;16.17;71.88
15444;BME280;7822;48.146;11.576;2023-05-09T09:04:58;95158.78;;;16.17;72.01
15444;BME280;7822;48.146;11.576;2023-05-09T09:07:27;95154.56;;;16.16;71.84
15444;BME280;7822;48.146;11.576;2023-05-09T09:09:57;95157.16;;;16.16;71.94
15444;BME280;7822;48.146;11.576;2023-05-09T09:12:25;95158.00;;;16.17;72.00
15444;BME280;7822;48.146;11.576;2023-05-09T09:14:53;95148.50;;;16.16;72.03
15444;BME280;7822;48.146;11.576;2023-05-09T09:17:22;95150.16;;;16.17;72.12
15444;BME280;7822;48.146;11.576;2023-05-09T09:19:54;95158.78;;;16.17;72.09
15444;BME280;7822;48.146;11.576;2023-05-09T09:22:21;95152.75;;;16.17;72.03
15444;BME280;7822;48.146;11.576;2023-05-09T09:24:50;95138.03;;;16.16;71.99
15444;BME280;7822;48.146;11.576;2023-05-09T09:27:18;95135.41;;;16.16;72.01
15444;BME280;7822;48.146;11.576;2023-05-09T09:29:46;95129.22;;;16.17;72.27
15444;BME280;7822;48.146;11.576;2023-05-09T09:32:13;95128.38;;;16.16;72.07
15444;BME280;7822;48.146;11.576;2023-05-09T09:34:41;95128.53;;;16.15;72.01
15444;BME280;7822;48.146;11.576;2023-05-09T09:37:08;95118.88;;;16.15;71.85
15444;BME280;7822;48.146;11.576;2023-05-09T09:39:36;95104.97;;;16.15;72.04
15444;BME280;7822;48.146;11.576;2023-05-09T09:42:11;95108.41;;;16.15;72.12
15444;BME280;7822;48.146;11.576;2023-05-09T09:44:40;95104.16;;;16.14;72.14
15444;BME280;7822;48.146;11.576;2023-05-09T09:47:08;95102.34;;;16.15;72.08
15444;BME280;7822;48.146;11.576;2023-05-09T09:49:36;95102.34;;;16.15;72.29
15444;BME280;7822;48.146;11.576;2023-05-09T09:52:03;95091.88;;;16.15;72.00
15444;BME280;7822;48.146;11.576;2023-05-09T09:54:31;95084.03;;;16.15;71.93
15444;BME280;7822;48.146;11.576;2023-05-09T09:56:58;95084.84;;;16.15;72.13
15444;BME280;7822;48.146;11.576;2023-05-09T09:59:27;95081.28;;;16.16;72.11
15444;BME280;7822;48.146;11.576;2023-05-09T10:01:56;95080.44;;;16.16;71.93
15444;BME280;7822;48.146;11.576;2023-05-09T10:04:26;95078.66;;;16.16;72.00
15444;BME280;7822;48.146;11.576;2023-05-09T10:06:54;95069.97;;;16.16;72.18
15444;BME280;7822;48.146;11.576;2023-05-09T10:09:22;95069.00;;;16.17;72.07
15444;BME280;7822;48.146;11.576;2023-05-09T10:11:50;95065.56;;;16.16;72.13
15444;BME280;7822;48.146;11.576;2023-05-09T10:14:18;95056.88;;;16.16;71.98
15444;BME280;7822;48.146;11.576;2023-05-09T10:16:47;95051.66;;;16.16;71.99
15444;BME280;7822;48.146;11.576;2023-05-09T10:19:20;95052.47;;;16.16;72.22
15444;BME280;7822;48.146;11.576;2023-05-09T10:21:49;95039.41;;;16.16;72.10
15444;BME280;7822;48.146;11.576;2023-05-09T10:24:20;95042.00;;;16.16;72.09
15444;BME280;7822;48.146;11.576;2023-05-09T10:26:49;95035.13;;;16.15;72.29
15444;BME280;7822;48.146;11.576;2023-05-09T10:29:19;95034.16;;;16.16;72.15
15444;BME280;7822;48.146;11.576;2023-05-09T10:31:48;95034.16;;;16.16;71.90
15444;BME280;7822;48.146;11.576;2023-05-09T10:34:21;95032.50;;;16.15;72.04
15444;BME280;7822;48.146;11.576;2023-05-09T10:36:51;95028.94;;;16.16;72.03
15444;BME280;7822;48.146;11.576;2023-05-09T10:39:20;95020.44;;;16.14;72.12
15444;BME280;7822;48.146;11.576;2023-05-09T10:41:48;95019.44;;;16.15;72.12
15444;BME280;7822;48.146;11.576;2023-05-09T10:44:16;95004.53;;;16.16;72.18
15444;BME280;7822;48.146;11.576;2023-05-09T10:46:44;95002.09;;;16.14;72.11
15444;BME280;7822;48.146;11.576;2023-05-09T10:49:12;94997.66;;;16.15;72.08
15444;BME280;7822;48.146;11.576;2023-05-09T10:51:41;94997.66;;;16.15;72.52
15444;BME280;7822;48.146;11.576;2023-05-09T10:54:12;94999.50;;;16.14;72.17
15444;BME280;7822;48.146;11.576;2023-05-09T10:56:41;94989.03;;;16.14;72.17
15444;BME280;7822;48.146;11.576;2023-05-09T11:01:55;94978.56;;;16.14;72.25
15444;BME280;7822;48.146;11.576;2023-05-09T11:04:26;94972.50;;;16.14;72.25
15444;BME280;7822;48.146;11.576;2023-05-09T11:06:55;94970.69;;;16.14;72.19
15444;BME280;7822;48.146;11.576;2023-05-09T11:09:23;94957.63;;;16.14;72.26
15444;BME280;7822;48.146;11.576;2023-05-09T11:11:53;94950.72;;;16.13;72.21
15444;BME280;7822;48.146;11.576;2023-05-09T11:14:28;94951.56;;;16.14;72.20
15444;BME280;7822;48.146;11.576;2023-05-09T11:16:55;94941.91;;;16.14;72.22
15444;BME280;7822;48.146;11.576;2023-05-09T11:22:13;94934.84;;;16.15;72.25
15444;BME280;7822;48.146;11.576;2023-05-09T11:24:43;94936.50;;;16.16;72.40
15444;BME280;7822;48.146;11.576;2023-05-09T11:27:14;94924.38;;;16.15;72.18
15444;BME280;7822;48.146;11.576;2023-05-09T11:29:42;94933.06;;;16.15;72.23
15444;BME280;7822;48.146;11.576;2023-05-09T11:32:12;94929.63;;;16.15;72.15
15444;BME280;7822;48.146;11.576;2023-05-09T11:34:41;94930.31;;;16.17;72.22
15444;BME280;7822;48.146;11.576;2023-05-09T11:37:09;94919.00;;;16.16;72.16
15444;BME280;7822;48.146;11.576;2023-05-09T11:42:27;94921.63;;;16.16;72.17
15444;BME280;7822;48.146;11.576;2023-05-09T11:44:55;94912.78;;;16.17;72.16
15444;BME280;7822;48.146;11.576;2023-05-09T11:47:23;94902.47;;;16.16;72.16
15444;BME280;7822;48.146;11.576;2023-05-09T11:49:51;94904.94;;;16.17;72.22
15444;BME280;7822;48.146;11.576;2023-05-09T11:52:18;94905.94;;;16.16;72.19
15444;BME280;7822;48.146;11.576;2023-05-09T11:54:46;94905.75;;;16.18;72.08
15444;BME280;7822;48.146;11.576;2023-05-09T11:57:15;94893.66;;;16.17;72.14
15444;BME280;7822;48.146;11.576;2023-05-09T11:59:44;94896.28;;;16.17;72.20
15444;BME280;7822;48.146;11.576;2023-05-09T12:02:12;94887.59;;;16.16;72.29
15444;BME280;7822;48.146;11.576;2023-05-09T12:04:40;94886.59;;;16.17;72.25
15444;BME280;7822;48.146;11.576;2023-05-09T12:07:07;94878.94;;;16.16;72.31
15444;BME280;7822;48.146;11.576;2023-05-09T12:09:37;94885.00;;;16.16;72.18
15444;BME280;7822;48.146;11.576;2023-05-09T12:12:08;94871.06;;;16.16;72.34
15444;BME280;7822;48.146;11.576;2023-05-09T12:14:37;94865.03;;;16.15;72.25
15444;BME280;7822;48.146;11.576;2023-05-09T12:17:07;94856.19;;;16.16;72.15
15444;BME280;7822;48.146;11.576;2023-05-09T12:19:35;94857.16;;;16.15;72.34
15444;BME280;7822;48.146;11.576;2023-05-09T12:22:03;94855.38;;;16.16;72.30
15444;BME280;7822;48.146;11.576;2023-05-09T12:24:34;94857.16;;;16.15;72.34
15444;BME280;7822;48.146;11.576;2023-05-09T12:27:01;94846.69;;;16.15;72.24
15444;BME280;7822;48.146;11.576;2023-05-09T12:29:30;94838.03;;;16.15;72.21
15444;BME280;7822;48.146;11.576;2023-05-09T12:31:57;94832.00;;;16.14;72.24
15444;BME280;7822;48.146;11.576;2023-05-09T12:34:26;94836.22;;;16.15;72.34
15444;BME280;7822;48.146;11.576;2023-05-09T12:36:54;94829.19;;;16.16;72.33
15444;BME280;7822;48.146;11.576;2023-05-09T12:39:23;94831.81;;;16.16;72.12
15444;BME280;7822;48.146;11.576;2023-05-09T12:41:51;94823.78;;;16.17;72.28
15444;BME280;7822;48.146;11.576;2023-05-09T12:44:27;94817.75;;;16.17;72.28
15444;BME280;7822;48.146;11.576;2023-05-09T12:46:55;94816.94;;;16.16;72.29
15444;BME280;7822;48.146;11.576;2023-05-09T12:49:23;94813.31;;;16.17;72.26
15444;BME280;7822;48.146;11.576;2023-05-09T12:51:53;94805.31;;;16.19;72.22
15444;BME280;7822;48.146;11.576;2023-05-09T12:54:21;94800.09;;;16.19;72.25
15444;BME280;7822;48.146;11.576;2023-05-09T12:56:49;94799.28;;;16.18;72.21
15444;BME280;7822;48.146;11.576;2023-05-09T12:59:21;94790.41;;;16.19;72.23
15444;BME280;7822;48.146;11.576;2023-05-09T13:01:50;94796.47;;;16.20;72.05
15444;BME280;7822;48.146;11.576;2023-05-09T13:04:18;94783.41;;;16.20;72.23
15444;BME280;7822;48.146;11.576;2023-05-09T13:06:49;94788.63;;;16.20;72.27
15444;BME280;7822;48.146;11.576;2023-05-09T13:09:18;94783.41;;;16.20;72.22
15444;BME280;7822;48.146;11.576;2023-05-09T13:11:46;94781.59;;;16.20;72.24
15444;BME280;7822;48.146;11.576;2023-05-09T13:14:13;94782.41;;;16.21;72.12
15444;BME280;7822;48.146;11.576;2023-05-09T13:16:42;94771.94;;;16.21;72.30
15444;BME280;7822;48.146;11.576;2023-05-09T13:19:09;94764.91;;;16.21;72.18
15444;BME280;7822;48.146;11.576;2023-05-09T13:21:37;94756.25;;;16.21;72.43
15444;BME280;7822;48.146;11.576;2023-05-09T13:24:05;94760.66;;;16.20;72.12
15444;BME280;7822;48.146;11.576;2023-05-09T13:26:34;94764.09;;;16.21;72.17
15444;BME280;7822;48.146;11.576;2023-05-09T13:29:01;94750.00;;;16.22;72.30
15444;BME280;7822;48.146;11.576;2023-05-09T13:31:29;94748.41;;;16.21;72.10
15444;BME280;7822;48.146;11.576;2023-05-09T13:33:57;94747.56;;;16.20;72.28
15444;BME280;7822;48.146;11.576;2023-05-09T13:36:24;94741.50;;;16.20;72.28
15444;BME280;7822;48.146;11.576;2023-05-09T13:38:51;94737.94;;;16.21;72.34
15444;BME280;7822;48.146;11.576;2023-05-09T13:41:19;94736.28;;;16.20;72.29
15444;BME280;7822;48.146;11.576;2023-05-09T13:43:48;94733.66;;;16.20;72.17
15444;BME280;7822;48.146;11.576;2023-05-09T13:46:16;94722.38;;;16.19;72.29
15444;BME280;7822;48.146;11.576;2023-05-09T13:48:43;94723.19;;;16.20;72.31
15444;BME280;7822;48.146;11.576;2023-05-09T13:51:12;94725.00;;;16.19;72.31
15444;BME280;7822;48.146;11.576;2023-05-09T13:53:40;94719.75;;;16.19;72.34
15444;BME280;7822;48.146;11.576;2023-05-09T13:56:07;94717.97;;;16.20;72.37
15444;BME280;7822;48.146;11.576;2023-05-09T13:58:35;94711.91;;;16.19;72.20
15444;BME280;7822;48.146;11.576;2023-05-09T14:01:04;94709.28;;;16.19;72.43
15444;BME280;7822;48.146;11.576;2023-05-09T14:03:33;94704.06;;;16.19;72.32
15444;BME280;7822;48.146;11.576;2023-05-09T14:06:00;94699.81;;;16.18;72.31
15444;BME280;7822;48.146;11.576;2023-05-09T14:08:28;94696.19;;;16.19;72.47
15444;BME280;7822;48.146;11.576;2023-05-09T14:10:57;94704.88;;;16.20;72.37
15444;BME280;7822;48.146;11.576;2023-05-09T14:13:24;94695.41;;;16.19;72.32
15444;BME280;7822;48.146;11.576;2023-05-09T14:15:52;94698.81;;;16.19;72.31
15444;BME280;7822;48.146;11.576;2023-05-09T14:18:21;94699.00;;;16.18;72.27
15444;BME280;7822;48.146;11.576;2023-05-09T14:20:48;94698.81;;;16.19;72.38
15444;BME280;7822;48.146;11.576;2023-05-09T14:23:16;94689.34;;;16.18;72.41
15444;BME280;7822;48.146;11.576;2023-05-09T14:25:44;94690.19;;;16.19;72.44
15444;BME280;7822;48.146;11.576;2023-05-09T14:28:12;94687.56;;;16.19;72.46
15444;BME280;7822;48.146;11.576;2023-05-09T14:30:40;94677.88;;;16.19;72.47
15444;BME280;7822;48.146;11.576;2023-05-09T14:33:07;94677.88;;;16.19;72.40
15444;BME280;7822;48.146;11.576;2023-05-09T14:35:36;94674.47;;;16.19;72.40
15444;BME280;7822;48.146;11.576;2023-05-09T14:38:06;94669.25;;;16.19;72.37
15444;BME280;7822;48.146;11.576;2023-05-09T14:40:34;94665.63;;;16.20;72.43
15444;BME280;7822;48.146;11.576;2023-05-09T14:43:02;94666.44;;;16.20;72.29
15444;BME280;7822;48.146;11.576;2023-05-09T14:45:30;94655.97;;;16.20;72.38
15444;BME280;7822;48.146;11.576;2023-05-09T14:47:58;94649.09;;;16.19;72.34
15444;BME280;7822;48.146;11.576;2023-05-09T14:50:25;94647.31;;;16.20;72.53
15444;BME280;7822;48.146;11.576;2023-05-09T14:52:54;94636.84;;;16.20;72.61
15444;BME280;7822;48.146;11.576;2023-05-09T14:55:22;94642.88;;;16.20;72.35
15444;BME280;7822;48.146;11.576;2023-05-09T14:57:49;94642.88;;;16.20;72.39
15444;BME280;7822;48.146;11.576;2023-05-09T15:00:17;94633.25;;;16.21;72.45
15444;BME280;7822;48.146;11.576;2023-05-09T15:02:47;94626.19;;;16.21;72.43
15444;BME280;7822;48.146;11.576;2023-05-09T15:05:15;94641.09;;;16.21;72.52
15444;BME280;7822;48.146;11.576;2023-05-09T15:07:43;94634.22;;;16.20;72.46
15444;BME280;7822;48.146;11.576;2023-05-09T15:10:12;94627.19;;;16.20;72.45
15444;BME280;7822;48.146;11.576;2023-05-09T15:12:40;94623.75;;;16.20;72.50
15444;BME280;7822;48.146;11.576;2023-05-09T15:15:11;94630.78;;;16.19;72.51
15444;BME280;7822;48.146;11.576;2023-05-09T15:17:39;94631.59;;;16.20;72.45
15444;BME280;7822;48.146;11.576;2023-05-09T15:20:07;94626.38;;;16.20;72.35
15444;BME280;7822;48.146;11.576;2023-05-09T15:22:34;94625.53;;;16.19;72.54
15444;BME280;7822;48.146;11.576;2023-05-09T15:25:02;94616.91;;;16.19;72.56
15444;BME280;7822;48.146;11.576;2023-05-09T15:27:32;94622.94;;;16.19;72.39
15444;BME280;7822;48.146;11.576;2023-05-09T15:30:00;94613.47;;;16.18;72.72
15444;BME280;7822;48.146;11.576;2023-05-09T15:32:27;94614.28;;;16.19;72.53
15444;BME280;7822;48.146;11.576;2023-05-09T15:34:55;94614.28;;;16.19;72.49
15444;BME280;7822;48.146;11.576;2023-05-09T15:37:23;94615.25;;;16.18;72.55
15444;BME280;7822;48.146;11.576;2023-05-09T15:39:50;94604.78;;;16.18;72.47
15444;BME280;7822;48.146;11.576;2023-05-09T15:42:18;94601.19;;;16.19;72.59
15444;BME280;7822;48.146;11.576;2023-05-09T15:44:46;94605.59;;;16.18;72.59
15444;BME280;7822;48.146;11.576;2023-05-09T15:47:14;94607.41;;;16.18;72.46